sensor_id;sensor_type;location;lat;lon;timestamp;temperature;humidity
30889;DHT22;51092;50.874;7.024;2022-07-10T00:00:52;15.00;88.00
30889;DHT22;51092;50.874;7.024;2022-07-10T00:01:56;15.00;88.00
30889;DHT22;51092;50.874;7.024;2022-07-10T00:02:57;15.00;88.10
30889;DHT22;51092;50.874;7.024;2022-07-10T00:04:00;14.90;88.50
30889;DHT22;51092;50.874;7.024;2022-07-10T00:05:02;15.00;88.40
30889;DHT22;51092;50.874;7.024;2022-07-10T00:06:05;14.90;89.00
30889;DHT22;51092;50.874;7.024;2022-07-10T00:07:08;15.00;88.20
30889;DHT22;51092;50.874;7.024;2022-07-10T00:08:10;14.90;88.40
30889;DHT22;51092;50.874;7.024;2022-07-10T00:09:12;14.90;88.00
30889;DHT22;51092;50.874;7.024;2022-07-10T00:10:15;14.90;88.20
30889;DHT22;51092;50.874;7.024;2022-07-10T00:11:17;14.90;88.50
30889;DHT22;51092;50.874;7.024;2022-07-10T00:12:19;14.90;88.10
30889;DHT22;51092;50.874;7.024;2022-07-10T00:13:22;14.90;88.20
30889;DHT22;51092;50.874;7.024;2022-07-10T00:14:25;14.90;87.90
30889;DHT22;51092;50.874;7.024;2022-07-10T00:15:26;15.00;87.30
30889;DHT22;51092;50.874;7.024;2022-07-10T00:16:29;14.90;88.10
30889;DHT22;51092;50.874;7.024;2022-07-10T00:17:30;14.90;87.40
30889;DHT22;51092;50.874;7.024;2022-07-10T00:18:33;14.90;87.60
30889;DHT22;51092;50.874;7.024;2022-07-10T00:19:36;14.90;88.40
30889;DHT22;51092;50.874;7.024;2022-07-10T00:20:38;14.90;88.60
30889;DHT22;51092;50.874;7.024;2022-07-10T00:21:39;14.80;89.80
30889;DHT22;51092;50.874;7.024;2022-07-10T00:22:41;14.80;89.60
30889;DHT22;51092;50.874;7.024;2022-07-10T00:23:43;14.80;90.00
30889;DHT22;51092;50.874;7.024;2022-07-10T00:24:45;14.70;90.00
30889;DHT22;51092;50.874;7.024;2022-07-10T00:25:47;14.80;89.40
30889;DHT22;51092;50.874;7.024;2022-07-10T00:26:50;14.70;89.40
30889;DHT22;51092;50.874;7.024;2022-07-10T00:27:54;14.70;89.80
30889;DHT22;51092;50.874;7.024;2022-07-10T00:28:58;14.70;90.00
30889;DHT22;51092;50.874;7.024;2022-07-10T00:30:00;14.70;90.30
30889;DHT22;51092;50.874;7.024;2022-07-10T00:31:04;14.70;90.10
30889;DHT22;51092;50.874;7.024;2022-07-10T00:32:06;14.70;90.00
30889;DHT22;51092;50.874;7.024;2022-07-10T00:33:08;14.70;90.10
30889;DHT22;51092;50.874;7.024;2022-07-10T00:34:11;14.70;90.00
30889;DHT22;51092;50.874;7.024;2022-07-10T00:35:13;14.70;90.10
30889;DHT22;51092;50.874;7.024;2022-07-10T00:36:16;14.70;90.50
30889;DHT22;51092;50.874;7.024;2022-07-10T00:37:17;14.60;90.50
30889;DHT22;51092;50.874;7.024;2022-07-10T00:38:22;14.60;90.30
30889;DHT22;51092;50.874;7.024;2022-07-10T00:39:23;14.60;90.80
30889;DHT22;51092;50.874;7.024;2022-07-10T00:40:26;14.60;90.80
30889;DHT22;51092;50.874;7.024;2022-07-10T00:41:30;14.60;91.20
30889;DHT22;51092;50.874;7.024;2022-07-10T00:42:32;14.60;91.10
30889;DHT22;51092;50.874;7.024;2022-07-10T00:43:52;14.50;91.30
30889;DHT22;51092;50.874;7.024;2022-07-10T00:45:00;14.50;91.20
30889;DHT22;51092;50.874;7.024;2022-07-10T00:46:02;14.50;91.60
30889;DHT22;51092;50.874;7.024;2022-07-10T00:47:04;14.50;91.40
30889;DHT22;51092;50.874;7.024;2022-07-10T00:48:09;14.50;91.40
30889;DHT22;51092;50.874;7.024;2022-07-10T00:49:10;14.50;91.50
30889;DHT22;51092;50.874;7.024;2022-07-10T00:50:13;14.50;91.80
30889;DHT22;51092;50.874;7.024;2022-07-10T00:51:17;14.50;92.20
30889;DHT22;51092;50.874;7.024;2022-07-10T00:52:19;14.40;92.40
30889;DHT22;51092;50.874;7.024;2022-07-10T00:53:21;14.40;92.50
30889;DHT22;51092;50.874;7.024;2022-07-10T00:54:23;14.40;92.90
30889;DHT22;51092;50.874;7.024;2022-07-10T00:55:26;14.40;93.30
30889;DHT22;51092;50.874;7.024;2022-07-10T00:56:29;14.40;93.60
30889;DHT22;51092;50.874;7.024;2022-07-10T00:57:31;14.30;93.90
30889;DHT22;51092;50.874;7.024;2022-07-10T00:58:35;14.30;94.10
30889;DHT22;51092;50.874;7.024;2022-07-10T00:59:37;14.40;93.90
30889;DHT22;51092;50.874;7.024;2022-07-10T01:00:41;14.40;94.40
30889;DHT22;51092;50.874;7.024;2022-07-10T01:01:44;14.30;94.90
30889;DHT22;51092;50.874;7.024;2022-07-10T01:02:46;14.30;95.10
30889;DHT22;51092;50.874;7.024;2022-07-10T01:03:48;14.30;95.10
30889;DHT22;51092;50.874;7.024;2022-07-10T01:04:51;14.40;95.00
30889;DHT22;51092;50.874;7.024;2022-07-10T01:05:53;14.30;95.80
30889;DHT22;51092;50.874;7.024;2022-07-10T01:06:58;14.30;96.10
30889;DHT22;51092;50.874;7.024;2022-07-10T01:08:00;14.20;96.50
30889;DHT22;51092;50.874;7.024;2022-07-10T01:09:03;14.20;96.50
30889;DHT22;51092;50.874;7.024;2022-07-10T01:10:05;14.30;96.20
30889;DHT22;51092;50.874;7.024;2022-07-10T01:11:08;14.30;95.10
30889;DHT22;51092;50.874;7.024;2022-07-10T01:12:11;14.40;94.60
30889;DHT22;51092;50.874;7.024;2022-07-10T01:13:14;14.40;94.00
30889;DHT22;51092;50.874;7.024;2022-07-10T01:14:15;14.50;93.70
30889;DHT22;51092;50.874;7.024;2022-07-10T01:15:18;14.50;94.40
30889;DHT22;51092;50.874;7.024;2022-07-10T01:16:22;14.20;98.40
30889;DHT22;51092;50.874;7.024;2022-07-10T01:17:25;14.10;99.90
30889;DHT22;51092;50.874;7.024;2022-07-10T01:18:27;13.90;99.90
30889;DHT22;51092;50.874;7.024;2022-07-10T01:19:30;13.90;99.90
30889;DHT22;51092;50.874;7.024;2022-07-10T01:20:31;13.90;99.90
30889;DHT22;51092;50.874;7.024;2022-07-10T01:21:37;13.80;99.90
30889;DHT22;51092;50.874;7.024;2022-07-10T01:22:38;13.80;99.90
30889;DHT22;51092;50.874;7.024;2022-07-10T01:23:41;13.70;99.90
30889;DHT22;51092;50.874;7.024;2022-07-10T01:24:45;13.70;99.90
30889;DHT22;51092;50.874;7.024;2022-07-10T01:25:48;13.70;99.90
30889;DHT22;51092;50.874;7.024;2022-07-10T01:26:49;13.70;99.90
30889;DHT22;51092;50.874;7.024;2022-07-10T01:27:52;13.70;99.90
30889;DHT22;51092;50.874;7.024;2022-07-10T01:28:54;13.70;99.90
30889;DHT22;51092;50.874;7.024;2022-07-10T01:29:57;13.70;99.90
30889;DHT22;51092;50.874;7.024;2022-07-10T01:30:59;13.70;99.90
30889;DHT22;51092;50.874;7.024;2022-07-10T01:32:04;13.60;99.90
30889;DHT22;51092;50.874;7.024;2022-07-10T01:33:06;13.60;99.90
30889;DHT22;51092;50.874;7.024;2022-07-10T01:34:09;13.60;99.90
30889;DHT22;51092;50.874;7.024;2022-07-10T01:35:10;13.60;99.90
30889;DHT22;51092;50.874;7.024;2022-07-10T01:36:13;13.60;99.90
30889;DHT22;51092;50.874;7.024;2022-07-10T01:37:17;13.60;99.90
30889;DHT22;51092;50.874;7.024;2022-07-10T01:38:19;13.60;99.90
30889;DHT22;51092;50.874;7.024;2022-07-10T01:39:21;13.60;99.90
30889;DHT22;51092;50.874;7.024;2022-07-10T01:40:24;13.60;99.90
30889;DHT22;51092;50.874;7.024;2022-07-10T01:41:26;13.60;99.90
30889;DHT22;51092;50.874;7.024;2022-07-10T01:42:28;13.60;99.90
30889;DHT22;51092;50.874;7.024;2022-07-10T01:43:30;13.60;99.90
30889;DHT22;51092;50.874;7.024;2022-07-10T01:44:32;13.60;99.90
30889;DHT22;51092;50.874;7.024;2022-07-10T01:45:34;13.60;99.90
30889;DHT22;51092;50.874;7.024;2022-07-10T01:46:43;13.60;99.90
30889;DHT22;51092;50.874;7.024;2022-07-10T01:47:44;13.60;99.90
30889;DHT22;51092;50.874;7.024;2022-07-10T01:48:47;13.70;99.90
30889;DHT22;51092;50.874;7.024;2022-07-10T01:49:49;13.60;99.90
30889;DHT22;51092;50.874;7.024;2022-07-10T01:50:52;13.60;99.90
30889;DHT22;51092;50.874;7.024;2022-07-10T01:51:54;13.60;99.90
30889;DHT22;51092;50.874;7.024;2022-07-10T01:52:58;13.60;99.90
30889;DHT22;51092;50.874;7.024;2022-07-10T01:53:59;13.60;99.90
30889;DHT22;51092;50.874;7.024;2022-07-10T01:55:02;13.60;99.90
30889;DHT22;51092;50.874;7.024;2022-07-10T01:56:06;13.60;99.90
30889;DHT22;51092;50.874;7.024;2022-07-10T01:57:09;13.50;99.90
30889;DHT22;51092;50.874;7.024;2022-07-10T01:58:10;13.50;99.90
30889;DHT22;51092;50.874;7.024;2022-07-10T01:59:13;13.40;99.90
30889;DHT22;51092;50.874;7.024;2022-07-10T02:00:15;13.40;99.90
30889;DHT22;51092;50.874;7.024;2022-07-10T02:01:17;13.40;99.90
30889;DHT22;51092;50.874;7.024;2022-07-10T02:02:20;13.50;99.90
30889;DHT22;51092;50.874;7.024;2022-07-10T02:03:22;13.40;99.90
30889;DHT22;51092;50.874;7.024;2022-07-10T02:04:42;13.50;99.90
30889;DHT22;51092;50.874;7.024;2022-07-10T02:05:45;13.50;99.90
30889;DHT22;51092;50.874;7.024;2022-07-10T02:06:46;13.50;99.90
30889;DHT22;51092;50.874;7.024;2022-07-10T02:07:49;13.50;99.90
30889;DHT22;51092;50.874;7.024;2022-07-10T02:08:52;13.50;99.90
30889;DHT22;51092;50.874;7.024;2022-07-10T02:09:55;13.40;99.90
30889;DHT22;51092;50.874;7.024;2022-07-10T02:10:56;13.50;99.90
30889;DHT22;51092;50.874;7.024;2022-07-10T02:11:59;13.50;99.90
30889;DHT22;51092;50.874;7.024;2022-07-10T02:13:00;13.50;99.90
30889;DHT22;51092;50.874;7.024;2022-07-10T02:14:03;13.50;99.90
30889;DHT22;51092;50.874;7.024;2022-07-10T02:15:05;13.60;99.90
30889;DHT22;51092;50.874;7.024;2022-07-10T02:16:08;13.60;99.90
30889;DHT22;51092;50.874;7.024;2022-07-10T02:17:10;13.60;99.90
30889;DHT22;51092;50.874;7.024;2022-07-10T02:18:12;13.60;99.90
30889;DHT22;51092;50.874;7.024;2022-07-10T02:19:14;13.50;99.90
30889;DHT22;51092;50.874;7.024;2022-07-10T02:20:16;13.50;99.90
30889;DHT22;51092;50.874;7.024;2022-07-10T02:21:20;13.60;99.90
30889;DHT22;51092;50.874;7.024;2022-07-10T02:22:22;13.60;99.90
30889;DHT22;51092;50.874;7.024;2022-07-10T02:23:24;13.60;99.90
30889;DHT22;51092;50.874;7.024;2022-07-10T02:24:28;13.60;99.90
30889;DHT22;51092;50.874;7.024;2022-07-10T02:25:30;13.60;99.90
30889;DHT22;51092;50.874;7.024;2022-07-10T02:26:32;13.60;99.90
30889;DHT22;51092;50.874;7.024;2022-07-10T02:27:35;13.70;99.90
30889;DHT22;51092;50.874;7.024;2022-07-10T02:28:36;13.70;99.90
30889;DHT22;51092;50.874;7.024;2022-07-10T02:29:37;13.70;99.90
30889;DHT22;51092;50.874;7.024;2022-07-10T02:30:38;13.70;99.90
30889;DHT22;51092;50.874;7.024;2022-07-10T02:31:40;13.70;99.90
30889;DHT22;51092;50.874;7.024;2022-07-10T02:32:42;13.70;99.90
30889;DHT22;51092;50.874;7.024;2022-07-10T02:33:45;13.70;99.90
30889;DHT22;51092;50.874;7.024;2022-07-10T02:34:46;13.80;99.90
30889;DHT22;51092;50.874;7.024;2022-07-10T02:35:51;13.80;99.90
30889;DHT22;51092;50.874;7.024;2022-07-10T02:36:52;13.90;99.90
30889;DHT22;51092;50.874;7.024;2022-07-10T02:37:56;13.90;99.90
30889;DHT22;51092;50.874;7.024;2022-07-10T02:38:57;13.90;99.90
30889;DHT22;51092;50.874;7.024;2022-07-10T02:40:01;14.00;99.90
30889;DHT22;51092;50.874;7.024;2022-07-10T02:41:03;14.00;99.90
30889;DHT22;51092;50.874;7.024;2022-07-10T02:42:06;14.00;99.90
30889;DHT22;51092;50.874;7.024;2022-07-10T02:43:09;14.00;99.90
30889;DHT22;51092;50.874;7.024;2022-07-10T02:44:10;14.00;99.90
30889;DHT22;51092;50.874;7.024;2022-07-10T02:45:14;14.10;99.90
30889;DHT22;51092;50.874;7.024;2022-07-10T02:46:15;14.10;99.90
30889;DHT22;51092;50.874;7.024;2022-07-10T02:47:17;14.10;99.90
30889;DHT22;51092;50.874;7.024;2022-07-10T02:48:18;14.10;99.90
30889;DHT22;51092;50.874;7.024;2022-07-10T02:49:19;14.20;99.90
30889;DHT22;51092;50.874;7.024;2022-07-10T02:50:21;14.20;99.80
30889;DHT22;51092;50.874;7.024;2022-07-10T02:51:24;14.20;99.90
30889;DHT22;51092;50.874;7.024;2022-07-10T02:52:25;14.10;99.90
30889;DHT22;51092;50.874;7.024;2022-07-10T02:53:28;14.20;99.90
30889;DHT22;51092;50.874;7.024;2022-07-10T02:54:30;14.10;99.90
30889;DHT22;51092;50.874;7.024;2022-07-10T02:55:33;14.10;99.90
30889;DHT22;51092;50.874;7.024;2022-07-10T02:56:35;14.00;99.90
30889;DHT22;51092;50.874;7.024;2022-07-10T02:57:38;14.00;99.90
30889;DHT22;51092;50.874;7.024;2022-07-10T02:58:39;14.00;99.90
30889;DHT22;51092;50.874;7.024;2022-07-10T02:59:42;14.00;99.90
30889;DHT22;51092;50.874;7.024;2022-07-10T03:00:43;14.00;99.90
30889;DHT22;51092;50.874;7.024;2022-07-10T03:01:46;14.10;99.90
30889;DHT22;51092;50.874;7.024;2022-07-10T03:02:48;14.00;99.90
30889;DHT22;51092;50.874;7.024;2022-07-10T03:03:50;14.10;99.90
30889;DHT22;51092;50.874;7.024;2022-07-10T03:04:53;14.10;99.90
30889;DHT22;51092;50.874;7.024;2022-07-10T03:05:54;14.10;99.90
30889;DHT22;51092;50.874;7.024;2022-07-10T03:06:57;14.10;99.90
30889;DHT22;51092;50.874;7.024;2022-07-10T03:07:59;14.00;99.90
30889;DHT22;51092;50.874;7.024;2022-07-10T03:09:01;14.00;99.90
30889;DHT22;51092;50.874;7.024;2022-07-10T03:10:03;14.00;99.90
30889;DHT22;51092;50.874;7.024;2022-07-10T03:11:08;13.90;99.90
30889;DHT22;51092;50.874;7.024;2022-07-10T03:12:09;13.90;99.90
30889;DHT22;51092;50.874;7.024;2022-07-10T03:13:12;13.80;99.90
30889;DHT22;51092;50.874;7.024;2022-07-10T03:14:14;13.70;99.90
30889;DHT22;51092;50.874;7.024;2022-07-10T03:15:19;13.60;99.90
30889;DHT22;51092;50.874;7.024;2022-07-10T03:16:20;13.70;99.90
30889;DHT22;51092;50.874;7.024;2022-07-10T03:17:23;13.70;99.90
30889;DHT22;51092;50.874;7.024;2022-07-10T03:18:24;13.60;99.90
30889;DHT22;51092;50.874;7.024;2022-07-10T03:19:27;13.70;99.90
30889;DHT22;51092;50.874;7.024;2022-07-10T03:20:29;13.80;99.90
30889;DHT22;51092;50.874;7.024;2022-07-10T03:21:31;13.80;99.90
30889;DHT22;51092;50.874;7.024;2022-07-10T03:22:33;13.80;99.90
30889;DHT22;51092;50.874;7.024;2022-07-10T03:23:35;13.80;99.90
30889;DHT22;51092;50.874;7.024;2022-07-10T03:24:40;13.90;99.90
30889;DHT22;51092;50.874;7.024;2022-07-10T03:25:43;13.90;99.90
30889;DHT22;51092;50.874;7.024;2022-07-10T03:26:46;13.90;99.90
30889;DHT22;51092;50.874;7.024;2022-07-10T03:27:48;13.90;99.90
30889;DHT22;51092;50.874;7.024;2022-07-10T03:28:50;14.00;99.90
30889;DHT22;51092;50.874;7.024;2022-07-10T03:29:52;14.00;99.90
30889;DHT22;51092;50.874;7.024;2022-07-10T03:30:54;14.00;99.90
30889;DHT22;51092;50.874;7.024;2022-07-10T03:31:57;14.10;99.90
30889;DHT22;51092;50.874;7.024;2022-07-10T03:32:59;14.10;99.90
30889;DHT22;51092;50.874;7.024;2022-07-10T03:34:02;14.00;99.90
30889;DHT22;51092;50.874;7.024;2022-07-10T03:35:05;14.00;99.90
30889;DHT22;51092;50.874;7.024;2022-07-10T03:36:07;14.10;99.90
30889;DHT22;51092;50.874;7.024;2022-07-10T03:37:10;14.10;99.90
30889;DHT22;51092;50.874;7.024;2022-07-10T03:38:11;14.10;99.90
30889;DHT22;51092;50.874;7.024;2022-07-10T03:39:14;14.10;99.90
30889;DHT22;51092;50.874;7.024;2022-07-10T03:40:15;14.00;99.90
30889;DHT22;51092;50.874;7.024;2022-07-10T03:41:18;14.00;99.90
30889;DHT22;51092;50.874;7.024;2022-07-10T03:42:22;14.00;99.90
30889;DHT22;51092;50.874;7.024;2022-07-10T03:43:24;14.00;99.90
30889;DHT22;51092;50.874;7.024;2022-07-10T03:44:26;14.00;99.90
30889;DHT22;51092;50.874;7.024;2022-07-10T03:45:28;14.00;99.90
30889;DHT22;51092;50.874;7.024;2022-07-10T03:46:31;14.00;99.90
30889;DHT22;51092;50.874;7.024;2022-07-10T03:47:32;14.00;99.90
30889;DHT22;51092;50.874;7.024;2022-07-10T03:48:35;14.00;99.90
30889;DHT22;51092;50.874;7.024;2022-07-10T03:49:37;13.90;99.90
30889;DHT22;51092;50.874;7.024;2022-07-10T03:50:41;14.00;99.90
30889;DHT22;51092;50.874;7.024;2022-07-10T03:51:42;13.90;99.90
30889;DHT22;51092;50.874;7.024;2022-07-10T03:52:45;14.00;99.90
30889;DHT22;51092;50.874;7.024;2022-07-10T03:53:47;14.00;99.90
30889;DHT22;51092;50.874;7.024;2022-07-10T03:54:49;14.10;99.90
30889;DHT22;51092;50.874;7.024;2022-07-10T03:55:52;14.00;99.90
30889;DHT22;51092;50.874;7.024;2022-07-10T03:56:53;14.00;99.90
30889;DHT22;51092;50.874;7.024;2022-07-10T03:58:15;14.00;99.90
30889;DHT22;51092;50.874;7.024;2022-07-10T03:59:17;14.00;99.90
30889;DHT22;51092;50.874;7.024;2022-07-10T04:00:19;14.00;99.90
30889;DHT22;51092;50.874;7.024;2022-07-10T04:01:23;13.90;99.90
30889;DHT22;51092;50.874;7.024;2022-07-10T04:02:24;13.90;99.90
30889;DHT22;51092;50.874;7.024;2022-07-10T04:03:27;14.00;99.90
30889;DHT22;51092;50.874;7.024;2022-07-10T04:04:30;14.00;99.90
30889;DHT22;51092;50.874;7.024;2022-07-10T04:05:34;14.00;99.90
30889;DHT22;51092;50.874;7.024;2022-07-10T04:06:35;13.90;99.90
30889;DHT22;51092;50.874;7.024;2022-07-10T04:07:39;13.90;99.90
30889;DHT22;51092;50.874;7.024;2022-07-10T04:08:41;13.90;99.90
30889;DHT22;51092;50.874;7.024;2022-07-10T04:09:44;13.90;99.90
30889;DHT22;51092;50.874;7.024;2022-07-10T04:10:45;13.90;99.90
30889;DHT22;51092;50.874;7.024;2022-07-10T04:11:48;13.90;99.90
30889;DHT22;51092;50.874;7.024;2022-07-10T04:12:49;13.90;99.90
30889;DHT22;51092;50.874;7.024;2022-07-10T04:13:54;14.00;99.90
30889;DHT22;51092;50.874;7.024;2022-07-10T04:14:55;14.00;99.90
30889;DHT22;51092;50.874;7.024;2022-07-10T04:15:58;14.10;99.90
30889;DHT22;51092;50.874;7.024;2022-07-10T04:16:59;14.10;99.90
30889;DHT22;51092;50.874;7.024;2022-07-10T04:18:02;14.20;99.90
30889;DHT22;51092;50.874;7.024;2022-07-10T04:19:04;14.10;99.90
30889;DHT22;51092;50.874;7.024;2022-07-10T04:20:07;14.10;99.90
30889;DHT22;51092;50.874;7.024;2022-07-10T04:21:09;14.10;99.90
30889;DHT22;51092;50.874;7.024;2022-07-10T04:22:11;14.10;99.90
30889;DHT22;51092;50.874;7.024;2022-07-10T04:23:13;14.10;99.90
30889;DHT22;51092;50.874;7.024;2022-07-10T04:24:15;14.00;99.90
30889;DHT22;51092;50.874;7.024;2022-07-10T04:25:19;14.00;99.90
30889;DHT22;51092;50.874;7.024;2022-07-10T04:26:20;14.00;99.90
30889;DHT22;51092;50.874;7.024;2022-07-10T04:27:28;14.00;99.90
30889;DHT22;51092;50.874;7.024;2022-07-10T04:28:29;14.10;99.90
30889;DHT22;51092;50.874;7.024;2022-07-10T04:29:32;14.20;99.90
30889;DHT22;51092;50.874;7.024;2022-07-10T04:30:34;14.10;99.90
30889;DHT22;51092;50.874;7.024;2022-07-10T04:31:35;14.20;99.90
30889;DHT22;51092;50.874;7.024;2022-07-10T04:32:37;14.20;99.90
30889;DHT22;51092;50.874;7.024;2022-07-10T04:33:39;14.20;99.90
30889;DHT22;51092;50.874;7.024;2022-07-10T04:34:41;14.20;99.90
30889;DHT22;51092;50.874;7.024;2022-07-10T04:35:43;14.20;99.90
30889;DHT22;51092;50.874;7.024;2022-07-10T04:36:46;14.30;99.90
30889;DHT22;51092;50.874;7.024;2022-07-10T04:37:47;14.30;99.90
30889;DHT22;51092;50.874;7.024;2022-07-10T04:38:50;14.30;99.90
30889;DHT22;51092;50.874;7.024;2022-07-10T04:39:51;14.30;99.90
30889;DHT22;51092;50.874;7.024;2022-07-10T04:40:54;14.30;99.90
30889;DHT22;51092;50.874;7.024;2022-07-10T04:41:56;14.40;99.90
30889;DHT22;51092;50.874;7.024;2022-07-10T04:42:58;14.40;99.90
30889;DHT22;51092;50.874;7.024;2022-07-10T04:44:01;14.50;99.90
30889;DHT22;51092;50.874;7.024;2022-07-10T04:45:05;14.50;99.90
30889;DHT22;51092;50.874;7.024;2022-07-10T04:46:07;14.50;99.90
30889;DHT22;51092;50.874;7.024;2022-07-10T04:47:09;14.50;99.90
30889;DHT22;51092;50.874;7.024;2022-07-10T04:48:11;14.60;99.90
30889;DHT22;51092;50.874;7.024;2022-07-10T04:49:13;14.60;99.90
30889;DHT22;51092;50.874;7.024;2022-07-10T04:50:16;14.60;99.90
30889;DHT22;51092;50.874;7.024;2022-07-10T04:51:18;14.60;99.90
30889;DHT22;51092;50.874;7.024;2022-07-10T04:52:20;14.60;99.90
30889;DHT22;51092;50.874;7.024;2022-07-10T04:53:22;14.60;99.90
30889;DHT22;51092;50.874;7.024;2022-07-10T04:54:24;14.70;99.90
30889;DHT22;51092;50.874;7.024;2022-07-10T04:55:27;14.60;99.90
30889;DHT22;51092;50.874;7.024;2022-07-10T04:56:29;14.60;99.20
30889;DHT22;51092;50.874;7.024;2022-07-10T04:57:31;14.50;99.90
30889;DHT22;51092;50.874;7.024;2022-07-10T04:58:33;14.60;99.90
30889;DHT22;51092;50.874;7.024;2022-07-10T04:59:35;14.60;99.70
30889;DHT22;51092;50.874;7.024;2022-07-10T05:00:38;14.50;99.70
30889;DHT22;51092;50.874;7.024;2022-07-10T05:01:41;14.60;99.90
30889;DHT22;51092;50.874;7.024;2022-07-10T05:02:43;14.60;99.90
30889;DHT22;51092;50.874;7.024;2022-07-10T05:03:45;14.70;98.20
30889;DHT22;51092;50.874;7.024;2022-07-10T05:04:47;14.80;96.90
30889;DHT22;51092;50.874;7.024;2022-07-10T05:05:49;14.80;96.50
30889;DHT22;51092;50.874;7.024;2022-07-10T05:06:51;14.80;95.70
30889;DHT22;51092;50.874;7.024;2022-07-10T05:07:54;14.80;96.40
30889;DHT22;51092;50.874;7.024;2022-07-10T05:08:55;14.90;96.30
30889;DHT22;51092;50.874;7.024;2022-07-10T05:09:59;14.90;97.20
30889;DHT22;51092;50.874;7.024;2022-07-10T05:11:02;15.00;95.20
30889;DHT22;51092;50.874;7.024;2022-07-10T05:12:04;15.00;95.20
30889;DHT22;51092;50.874;7.024;2022-07-10T05:13:07;15.00;94.80
30889;DHT22;51092;50.874;7.024;2022-07-10T05:14:11;15.00;96.00
30889;DHT22;51092;50.874;7.024;2022-07-10T05:15:13;15.00;96.30
30889;DHT22;51092;50.874;7.024;2022-07-10T05:16:17;15.10;94.90
30889;DHT22;51092;50.874;7.024;2022-07-10T05:17:23;15.10;94.50
30889;DHT22;51092;50.874;7.024;2022-07-10T05:18:24;15.10;95.90
30889;DHT22;51092;50.874;7.024;2022-07-10T05:19:27;15.10;94.50
30889;DHT22;51092;50.874;7.024;2022-07-10T05:20:28;15.00;94.50
30889;DHT22;51092;50.874;7.024;2022-07-10T05:21:31;14.90;96.00
30889;DHT22;51092;50.874;7.024;2022-07-10T05:22:33;14.80;96.90
30889;DHT22;51092;50.874;7.024;2022-07-10T05:23:35;14.80;97.70
30889;DHT22;51092;50.874;7.024;2022-07-10T05:24:38;14.80;97.00
30889;DHT22;51092;50.874;7.024;2022-07-10T05:25:39;14.80;98.00
30889;DHT22;51092;50.874;7.024;2022-07-10T05:26:42;14.70;97.60
30889;DHT22;51092;50.874;7.024;2022-07-10T05:27:44;14.70;99.10
30889;DHT22;51092;50.874;7.024;2022-07-10T05:28:46;14.70;99.70
30889;DHT22;51092;50.874;7.024;2022-07-10T05:29:48;14.70;99.50
30889;DHT22;51092;50.874;7.024;2022-07-10T05:30:50;14.70;97.90
30889;DHT22;51092;50.874;7.024;2022-07-10T05:31:54;14.70;98.40
30889;DHT22;51092;50.874;7.024;2022-07-10T05:32:56;14.60;99.90
30889;DHT22;51092;50.874;7.024;2022-07-10T05:33:58;14.60;99.90
30889;DHT22;51092;50.874;7.024;2022-07-10T05:35:01;14.70;99.90
30889;DHT22;51092;50.874;7.024;2022-07-10T05:36:03;14.70;98.50
30889;DHT22;51092;50.874;7.024;2022-07-10T05:37:05;14.70;99.90
30889;DHT22;51092;50.874;7.024;2022-07-10T05:38:08;14.70;99.70
30889;DHT22;51092;50.874;7.024;2022-07-10T05:39:12;14.80;99.90
30889;DHT22;51092;50.874;7.024;2022-07-10T05:40:13;14.80;99.90
30889;DHT22;51092;50.874;7.024;2022-07-10T05:41:16;14.80;99.90
30889;DHT22;51092;50.874;7.024;2022-07-10T05:42:17;14.90;99.90
30889;DHT22;51092;50.874;7.024;2022-07-10T05:43:20;15.00;99.00
30889;DHT22;51092;50.874;7.024;2022-07-10T05:44:22;15.00;97.10
30889;DHT22;51092;50.874;7.024;2022-07-10T05:45:24;14.90;97.40
30889;DHT22;51092;50.874;7.024;2022-07-10T05:46:26;14.90;98.60
30889;DHT22;51092;50.874;7.024;2022-07-10T05:47:30;14.90;96.20
30889;DHT22;51092;50.874;7.024;2022-07-10T05:48:32;15.00;96.00
30889;DHT22;51092;50.874;7.024;2022-07-10T05:49:34;15.00;95.90
30889;DHT22;51092;50.874;7.024;2022-07-10T05:50:36;15.10;95.20
30889;DHT22;51092;50.874;7.024;2022-07-10T05:51:38;15.10;94.80
30889;DHT22;51092;50.874;7.024;2022-07-10T05:52:40;15.00;96.30
30889;DHT22;51092;50.874;7.024;2022-07-10T05:53:44;15.10;97.00
30889;DHT22;51092;50.874;7.024;2022-07-10T05:54:46;15.20;95.80
30889;DHT22;51092;50.874;7.024;2022-07-10T05:55:48;15.20;92.50
30889;DHT22;51092;50.874;7.024;2022-07-10T05:56:50;15.10;94.30
30889;DHT22;51092;50.874;7.024;2022-07-10T05:57:53;15.10;94.60
30889;DHT22;51092;50.874;7.024;2022-07-10T05:58:56;15.00;95.60
30889;DHT22;51092;50.874;7.024;2022-07-10T05:59:59;15.10;96.10
30889;DHT22;51092;50.874;7.024;2022-07-10T06:01:01;15.20;96.70
30889;DHT22;51092;50.874;7.024;2022-07-10T06:02:03;15.30;95.50
30889;DHT22;51092;50.874;7.024;2022-07-10T06:03:06;15.30;93.80
30889;DHT22;51092;50.874;7.024;2022-07-10T06:04:09;15.30;91.20
30889;DHT22;51092;50.874;7.024;2022-07-10T06:05:10;15.30;90.90
30889;DHT22;51092;50.874;7.024;2022-07-10T06:06:13;15.30;91.80
30889;DHT22;51092;50.874;7.024;2022-07-10T06:07:16;15.40;91.20
30889;DHT22;51092;50.874;7.024;2022-07-10T06:08:19;15.50;90.70
30889;DHT22;51092;50.874;7.024;2022-07-10T06:09:22;15.60;90.90
30889;DHT22;51092;50.874;7.024;2022-07-10T06:10:23;15.60;91.40
30889;DHT22;51092;50.874;7.024;2022-07-10T06:11:26;15.70;89.10
30889;DHT22;51092;50.874;7.024;2022-07-10T06:12:27;15.60;87.70
30889;DHT22;51092;50.874;7.024;2022-07-10T06:13:30;15.50;89.70
30889;DHT22;51092;50.874;7.024;2022-07-10T06:14:32;15.50;90.00
30889;DHT22;51092;50.874;7.024;2022-07-10T06:15:34;15.50;88.70
30889;DHT22;51092;50.874;7.024;2022-07-10T06:16:36;15.50;90.60
30889;DHT22;51092;50.874;7.024;2022-07-10T06:17:38;15.60;89.10
30889;DHT22;51092;50.874;7.024;2022-07-10T06:18:41;15.50;85.90
30889;DHT22;51092;50.874;7.024;2022-07-10T06:19:44;15.50;85.20
30889;DHT22;51092;50.874;7.024;2022-07-10T06:20:45;15.40;85.40
30889;DHT22;51092;50.874;7.024;2022-07-10T06:21:48;15.40;85.70
30889;DHT22;51092;50.874;7.024;2022-07-10T06:23:09;15.50;85.90
30889;DHT22;51092;50.874;7.024;2022-07-10T06:24:13;15.50;86.10
30889;DHT22;51092;50.874;7.024;2022-07-10T06:25:15;15.60;84.60
30889;DHT22;51092;50.874;7.024;2022-07-10T06:26:17;15.70;84.20
30889;DHT22;51092;50.874;7.024;2022-07-10T06:27:19;15.80;81.00
30889;DHT22;51092;50.874;7.024;2022-07-10T06:28:22;15.70;81.00
30889;DHT22;51092;50.874;7.024;2022-07-10T06:29:25;15.60;81.90
30889;DHT22;51092;50.874;7.024;2022-07-10T06:30:27;15.60;82.00
30889;DHT22;51092;50.874;7.024;2022-07-10T06:31:29;15.60;83.30
30889;DHT22;51092;50.874;7.024;2022-07-10T06:32:30;15.70;83.00
30889;DHT22;51092;50.874;7.024;2022-07-10T06:33:33;15.80;82.30
30889;DHT22;51092;50.874;7.024;2022-07-10T06:34:37;15.80;82.90
30889;DHT22;51092;50.874;7.024;2022-07-10T06:35:39;15.80;82.90